sensor_id;sensor_type;location;lat;lon;timestamp;P1;durP1;ratioP1;P2;durP2;ratioP2
53521;SDS011;39398;48.382;9.802;2024-01-30T00:03:14;22.17;;;12.68;;
53521;SDS011;39398;48.382;9.802;2024-01-30T00:08:17;19.85;;;13.02;;
53521;SDS011;39398;48.382;9.802;2024-01-30T00:13:19;21.02;;;12.93;;
53521;SDS011;39398;48.382;9.802;2024-01-30T00:18:20;19.35;;;12.25;;
53521;SDS011;39398;48.382;9.802;2024-01-30T00:23:23;15.75;;;11.02;;
53521;SDS011;39398;48.382;9.802;2024-01-30T00:28:25;14.15;;;10.15;;
53521;SDS011;39398;48.382;9.802;2024-01-30T00:33:26;15.68;;;9.85;;
53521;SDS011;39398;48.382;9.802;2024-01-30T00:38:30;17.33;;;10.55;;
53521;SDS011;39398;48.382;9.802;2024-01-30T00:43:31;14.90;;;10.00;;
53521;SDS011;39398;48.382;9.802;2024-01-30T00:48:33;15.32;;;9.52;;
53521;SDS011;39398;48.382;9.802;2024-01-30T00:53:36;14.90;;;10.27;;
53521;SDS011;39398;48.382;9.802;2024-01-30T00:58:37;16.40;;;10.30;;
53521;SDS011;39398;48.382;9.802;2024-01-30T01:03:39;14.32;;;10.20;;
53521;SDS011;39398;48.382;9.802;2024-01-30T01:08:42;17.33;;;9.85;;
53521;SDS011;39398;48.382;9.802;2024-01-30T01:13:44;14.60;;;9.60;;
53521;SDS011;39398;48.382;9.802;2024-01-30T01:18:45;14.18;;;9.45;;
53521;SDS011;39398;48.382;9.802;2024-01-30T01:23:48;12.20;;;9.10;;
53521;SDS011;39398;48.382;9.802;2024-01-30T01:28:50;13.52;;;9.18;;
53521;SDS011;39398;48.382;9.802;2024-01-30T01:33:52;12.38;;;8.48;;
53521;SDS011;39398;48.382;9.802;2024-01-30T01:38:55;13.88;;;8.90;;
53521;SDS011;39398;48.382;9.802;2024-01-30T01:43:57;11.93;;;8.85;;
53521;SDS011;39398;48.382;9.802;2024-01-30T01:49:00;13.88;;;8.82;;
53521;SDS011;39398;48.382;9.802;2024-01-30T01:54:04;13.23;;;8.23;;
53521;SDS011;39398;48.382;9.802;2024-01-30T01:59:06;13.20;;;9.18;;
53521;SDS011;39398;48.382;9.802;2024-01-30T02:04:09;13.50;;;9.55;;
53521;SDS011;39398;48.382;9.802;2024-01-30T02:09:12;14.77;;;9.30;;
53521;SDS011;39398;48.382;9.802;2024-01-30T02:14:14;15.55;;;9.50;;
53521;SDS011;39398;48.382;9.802;2024-01-30T02:19:16;14.02;;;9.35;;
53521;SDS011;39398;48.382;9.802;2024-01-30T02:24:21;17.45;;;10.50;;
53521;SDS011;39398;48.382;9.802;2024-01-30T02:29:22;15.52;;;10.82;;
53521;SDS011;39398;48.382;9.802;2024-01-30T02:34:24;14.93;;;10.05;;
53521;SDS011;39398;48.382;9.802;2024-01-30T02:39:27;15.80;;;11.15;;
53521;SDS011;39398;48.382;9.802;2024-01-30T02:44:29;17.92;;;11.32;;
53521;SDS011;39398;48.382;9.802;2024-01-30T02:49:30;17.52;;;10.07;;
53521;SDS011;39398;48.382;9.802;2024-01-30T02:54:33;13.68;;;9.35;;
53521;SDS011;39398;48.382;9.802;2024-01-30T02:59:35;15.73;;;10.07;;
53521;SDS011;39398;48.382;9.802;2024-01-30T03:04:36;18.00;;;10.88;;
53521;SDS011;39398;48.382;9.802;2024-01-30T03:09:42;18.13;;;11.05;;
53521;SDS011;39398;48.382;9.802;2024-01-30T03:14:44;21.67;;;11.48;;
53521;SDS011;39398;48.382;9.802;2024-01-30T03:19:46;18.00;;;11.45;;
53521;SDS011;39398;48.382;9.802;2024-01-30T03:24:49;17.75;;;11.93;;
53521;SDS011;39398;48.382;9.802;2024-01-30T03:29:50;17.48;;;11.68;;
53521;SDS011;39398;48.382;9.802;2024-01-30T03:34:52;15.80;;;11.02;;
53521;SDS011;39398;48.382;9.802;2024-01-30T03:39:55;18.50;;;11.65;;
53521;SDS011;39398;48.382;9.802;2024-01-30T03:44:57;16.88;;;10.45;;
53521;SDS011;39398;48.382;9.802;2024-01-30T03:49:58;17.40;;;11.32;;
53521;SDS011;39398;48.382;9.802;2024-01-30T03:55:02;19.38;;;11.25;;
53521;SDS011;39398;48.382;9.802;2024-01-30T04:00:04;15.77;;;10.95;;
53521;SDS011;39398;48.382;9.802;2024-01-30T04:05:06;17.17;;;11.23;;
53521;SDS011;39398;48.382;9.802;2024-01-30T04:10:10;17.75;;;11.23;;
53521;SDS011;39398;48.382;9.802;2024-01-30T04:15:12;18.70;;;12.35;;
53521;SDS011;39398;48.382;9.802;2024-01-30T04:20:14;19.23;;;12.27;;
53521;SDS011;39398;48.382;9.802;2024-01-30T04:25:17;17.60;;;11.23;;
53521;SDS011;39398;48.382;9.802;2024-01-30T04:30:19;17.20;;;11.32;;
53521;SDS011;39398;48.382;9.802;2024-01-30T04:35:20;16.92;;;11.07;;
53521;SDS011;39398;48.382;9.802;2024-01-30T04:40:24;17.73;;;11.77;;
53521;SDS011;39398;48.382;9.802;2024-01-30T04:45:26;16.88;;;11.18;;
53521;SDS011;39398;48.382;9.802;2024-01-30T04:50:27;17.75;;;11.40;;
53521;SDS011;39398;48.382;9.802;2024-01-30T04:55:30;16.27;;;11.30;;
53521;SDS011;39398;48.382;9.802;2024-01-30T05:00:32;19.02;;;10.93;;
53521;SDS011;39398;48.382;9.802;2024-01-30T05:05:33;16.63;;;10.50;;
53521;SDS011;39398;48.382;9.802;2024-01-30T05:10:37;17.77;;;10.90;;
53521;SDS011;39398;48.382;9.802;2024-01-30T05:15:39;16.38;;;10.60;;
53521;SDS011;39398;48.382;9.802;2024-01-30T05:20:41;14.10;;;8.73;;
53521;SDS011;39398;48.382;9.802;2024-01-30T05:25:44;18.70;;;9.30;;
53521;SDS011;39398;48.382;9.802;2024-01-30T05:30:45;12.55;;;8.75;;
53521;SDS011;39398;48.382;9.802;2024-01-30T05:35:47;9.57;;;6.40;;
53521;SDS011;39398;48.382;9.802;2024-01-30T05:40:50;11.48;;;8.30;;
53521;SDS011;39398;48.382;9.802;2024-01-30T05:45:51;10.38;;;7.40;;
53521;SDS011;39398;48.382;9.802;2024-01-30T05:50:53;8.10;;;6.10;;
53521;SDS011;39398;48.382;9.802;2024-01-30T05:55:56;8.80;;;5.28;;
53521;SDS011;39398;48.382;9.802;2024-01-30T06:00:58;12.18;;;6.03;;
53521;SDS011;39398;48.382;9.802;2024-01-30T06:06:00;6.25;;;4.68;;
53521;SDS011;39398;48.382;9.802;2024-01-30T06:11:03;6.95;;;4.63;;
53521;SDS011;39398;48.382;9.802;2024-01-30T06:16:05;5.78;;;4.38;;
53521;SDS011;39398;48.382;9.802;2024-01-30T06:21:11;6.50;;;4.43;;
53521;SDS011;39398;48.382;9.802;2024-01-30T06:26:15;6.90;;;4.57;;
53521;SDS011;39398;48.382;9.802;2024-01-30T06:31:16;7.80;;;4.88;;
53521;SDS011;39398;48.382;9.802;2024-01-30T06:36:19;6.80;;;4.88;;
53521;SDS011;39398;48.382;9.802;2024-01-30T06:41:22;9.65;;;5.90;;
53521;SDS011;39398;48.382;9.802;2024-01-30T06:46:23;6.38;;;4.50;;
53521;SDS011;39398;48.382;9.802;2024-01-30T06:51:25;9.98;;;7.65;;
53521;SDS011;39398;48.382;9.802;2024-01-30T06:56:28;13.10;;;9.27;;
53521;SDS011;39398;48.382;9.802;2024-01-30T07:01:30;15.40;;;11.43;;
53521;SDS011;39398;48.382;9.802;2024-01-30T07:06:32;21.75;;;14.25;;
53521;SDS011;39398;48.382;9.802;2024-01-30T07:11:35;42.28;;;21.25;;
53521;SDS011;39398;48.382;9.802;2024-01-30T07:16:37;46.03;;;22.83;;
53521;SDS011;39398;48.382;9.802;2024-01-30T07:21:38;13.88;;;8.23;;
53521;SDS011;39398;48.382;9.802;2024-01-30T07:26:41;13.45;;;8.02;;
53521;SDS011;39398;48.382;9.802;2024-01-30T07:31:43;11.15;;;6.82;;
53521;SDS011;39398;48.382;9.802;2024-01-30T07:36:44;8.75;;;5.20;;
53521;SDS011;39398;48.382;9.802;2024-01-30T07:41:47;6.55;;;4.45;;
53521;SDS011;39398;48.382;9.802;2024-01-30T07:46:49;19.75;;;10.18;;
53521;SDS011;39398;48.382;9.802;2024-01-30T07:51:50;7.82;;;4.70;;
53521;SDS011;39398;48.382;9.802;2024-01-30T07:56:53;5.90;;;4.28;;
53521;SDS011;39398;48.382;9.802;2024-01-30T08:01:55;6.18;;;4.57;;
53521;SDS011;39398;48.382;9.802;2024-01-30T08:06:57;5.82;;;4.47;;
53521;SDS011;39398;48.382;9.802;2024-01-30T08:12:00;9.18;;;5.00;;
53521;SDS011;39398;48.382;9.802;2024-01-30T08:17:02;6.20;;;4.78;;
53521;SDS011;39398;48.382;9.802;2024-01-30T08:22:03;4.55;;;4.00;;
53521;SDS011;39398;48.382;9.802;2024-01-30T08:27:07;15.38;;;8.45;;
53521;SDS011;39398;48.382;9.802;2024-01-30T08:32:08;19.38;;;12.50;;
53521;SDS011;39398;48.382;9.802;2024-01-30T08:37:10;16.42;;;11.10;;
53521;SDS011;39398;48.382;9.802;2024-01-30T08:42:13;22.77;;;11.90;;
53521;SDS011;39398;48.382;9.802;2024-01-30T08:47:15;16.10;;;9.70;;
53521;SDS011;39398;48.382;9.802;2024-01-30T08:52:16;15.52;;;8.60;;
53521;SDS011;39398;48.382;9.802;2024-01-30T08:57:20;15.73;;;9.60;;
53521;SDS011;39398;48.382;9.802;2024-01-30T09:02:21;18.80;;;10.27;;
53521;SDS011;39398;48.382;9.802;2024-01-30T09:07:23;22.58;;;15.45;;
53521;SDS011;39398;48.382;9.802;2024-01-30T09:12:26;107.90;;;48.85;;
53521;SDS011;39398;48.382;9.802;2024-01-30T09:17:29;25.08;;;14.63;;
53521;SDS011;39398;48.382;9.802;2024-01-30T09:22:30;12.35;;;8.18;;
53521;SDS011;39398;48.382;9.802;2024-01-30T09:27:33;9.77;;;6.30;;
53521;SDS011;39398;48.382;9.802;2024-01-30T09:32:36;14.48;;;9.82;;
53521;SDS011;39398;48.382;9.802;2024-01-30T09:37:37;14.13;;;9.75;;
53521;SDS011;39398;48.382;9.802;2024-01-30T09:42:40;14.35;;;10.48;;
53521;SDS011;39398;48.382;9.802;2024-01-30T09:47:45;12.57;;;9.13;;
53521;SDS011;39398;48.382;9.802;2024-01-30T09:52:47;16.90;;;8.88;;
53521;SDS011;39398;48.382;9.802;2024-01-30T09:57:50;13.70;;;10.35;;
53521;SDS011;39398;48.382;9.802;2024-01-30T10:02:52;13.45;;;9.85;;
53521;SDS011;39398;48.382;9.802;2024-01-30T10:07:56;14.70;;;10.05;;
53521;SDS011;39398;48.382;9.802;2024-01-30T10:12:59;14.30;;;10.55;;
53521;SDS011;39398;48.382;9.802;2024-01-30T10:18:05;16.90;;;11.55;;
53521;SDS011;39398;48.382;9.802;2024-01-30T10:23:07;16.90;;;12.30;;
53521;SDS011;39398;48.382;9.802;2024-01-30T10:28:11;20.55;;;13.98;;
53521;SDS011;39398;48.382;9.802;2024-01-30T10:33:13;20.70;;;13.13;;
53521;SDS011;39398;48.382;9.802;2024-01-30T10:38:15;19.25;;;13.43;;
53521;SDS011;39398;48.382;9.802;2024-01-30T10:43:21;20.45;;;13.35;;
53521;SDS011;39398;48.382;9.802;2024-01-30T10:48:26;18.58;;;13.05;;
53521;SDS011;39398;48.382;9.802;2024-01-30T10:53:31;19.08;;;12.27;;
53521;SDS011;39398;48.382;9.802;2024-01-30T10:58:35;18.75;;;12.40;;
53521;SDS011;39398;48.382;9.802;2024-01-30T11:03:37;16.08;;;10.32;;
53521;SDS011;39398;48.382;9.802;2024-01-30T11:08:39;20.17;;;11.15;;
53521;SDS011;39398;48.382;9.802;2024-01-30T11:13:42;17.85;;;10.65;;
53521;SDS011;39398;48.382;9.802;2024-01-30T11:18:49;18.50;;;12.32;;
53521;SDS011;39398;48.382;9.802;2024-01-30T11:23:51;16.88;;;11.70;;
53521;SDS011;39398;48.382;9.802;2024-01-30T11:28:57;17.98;;;11.43;;
53521;SDS011;39398;48.382;9.802;2024-01-30T11:34:00;17.30;;;11.40;;
53521;SDS011;39398;48.382;9.802;2024-01-30T11:39:02;20.45;;;12.07;;
53521;SDS011;39398;48.382;9.802;2024-01-30T11:44:06;18.00;;;11.13;;
53521;SDS011;39398;48.382;9.802;2024-01-30T11:49:08;14.30;;;10.60;;
53521;SDS011;39398;48.382;9.802;2024-01-30T11:54:10;18.75;;;11.95;;
53521;SDS011;39398;48.382;9.802;2024-01-30T11:59:13;15.63;;;10.50;;
53521;SDS011;39398;48.382;9.802;2024-01-30T12:04:15;16.50;;;10.77;;
53521;SDS011;39398;48.382;9.802;2024-01-30T12:09:16;13.88;;;9.48;;
53521;SDS011;39398;48.382;9.802;2024-01-30T12:14:19;14.43;;;9.63;;
53521;SDS011;39398;48.382;9.802;2024-01-30T12:19:21;13.95;;;9.65;;
53521;SDS011;39398;48.382;9.802;2024-01-30T12:24:23;16.23;;;10.20;;
53521;SDS011;39398;48.382;9.802;2024-01-30T12:29:31;15.73;;;10.65;;
53521;SDS011;39398;48.382;9.802;2024-01-30T12:34:40;13.75;;;10.38;;
53521;SDS011;39398;48.382;9.802;2024-01-30T12:39:57;16.98;;;10.57;;
53521;SDS011;39398;48.382;9.802;2024-01-30T12:45:01;17.48;;;11.20;;
53521;SDS011;39398;48.382;9.802;2024-01-30T12:50:04;16.40;;;11.00;;
53521;SDS011;39398;48.382;9.802;2024-01-30T12:55:06;17.23;;;11.23;;
53521;SDS011;39398;48.382;9.802;2024-01-30T13:00:09;16.10;;;10.90;;
53521;SDS011;39398;48.382;9.802;2024-01-30T13:05:11;18.73;;;12.40;;
53521;SDS011;39398;48.382;9.802;2024-01-30T13:10:13;17.08;;;12.35;;
53521;SDS011;39398;48.382;9.802;2024-01-30T13:15:17;20.55;;;13.18;;
53521;SDS011;39398;48.382;9.802;2024-01-30T13:20:19;20.58;;;14.35;;
53521;SDS011;39398;48.382;9.802;2024-01-30T13:25:21;22.70;;;14.63;;
53521;SDS011;39398;48.382;9.802;2024-01-30T13:30:24;20.85;;;14.40;;
53521;SDS011;39398;48.382;9.802;2024-01-30T13:35:25;22.27;;;15.35;;
53521;SDS011;39398;48.382;9.802;2024-01-30T13:40:27;21.90;;;14.50;;
53521;SDS011;39398;48.382;9.802;2024-01-30T13:45:30;22.95;;;15.60;;
53521;SDS011;39398;48.382;9.802;2024-01-30T13:50:31;25.40;;;15.88;;
53521;SDS011;39398;48.382;9.802;2024-01-30T13:55:34;23.65;;;16.27;;
53521;SDS011;39398;48.382;9.802;2024-01-30T14:00:37;24.90;;;16.10;;
53521;SDS011;39398;48.382;9.802;2024-01-30T14:05:39;26.33;;;16.65;;
53521;SDS011;39398;48.382;9.802;2024-01-30T14:10:42;24.10;;;16.60;;
53521;SDS011;39398;48.382;9.802;2024-01-30T14:15:45;25.60;;;16.48;;
53521;SDS011;39398;48.382;9.802;2024-01-30T14:20:47;25.52;;;17.30;;
53521;SDS011;39398;48.382;9.802;2024-01-30T14:25:48;28.05;;;17.23;;
53521;SDS011;39398;48.382;9.802;2024-01-30T14:30:51;27.58;;;17.42;;
53521;SDS011;39398;48.382;9.802;2024-01-30T14:35:53;25.58;;;17.33;;
53521;SDS011;39398;48.382;9.802;2024-01-30T14:40:55;24.33;;;17.13;;
53521;SDS011;39398;48.382;9.802;2024-01-30T14:45:58;25.85;;;16.70;;
53521;SDS011;39398;48.382;9.802;2024-01-30T14:50:59;26.52;;;17.60;;
53521;SDS011;39398;48.382;9.802;2024-01-30T14:56:01;26.92;;;17.33;;
53521;SDS011;39398;48.382;9.802;2024-01-30T15:01:04;26.10;;;17.00;;
53521;SDS011;39398;48.382;9.802;2024-01-30T15:06:06;27.45;;;16.35;;
53521;SDS011;39398;48.382;9.802;2024-01-30T15:11:08;25.40;;;16.08;;
53521;SDS011;39398;48.382;9.802;2024-01-30T15:16:11;24.40;;;15.73;;
53521;SDS011;39398;48.382;9.802;2024-01-30T15:21:13;21.90;;;15.27;;
53521;SDS011;39398;48.382;9.802;2024-01-30T15:26:14;23.33;;;15.88;;
53521;SDS011;39398;48.382;9.802;2024-01-30T15:31:17;21.98;;;14.82;;
53521;SDS011;39398;48.382;9.802;2024-01-30T15:36:19;24.70;;;15.32;;
53521;SDS011;39398;48.382;9.802;2024-01-30T15:41:21;24.20;;;15.10;;
53521;SDS011;39398;48.382;9.802;2024-01-30T15:46:24;20.85;;;14.70;;
53521;SDS011;39398;48.382;9.802;2024-01-30T15:51:25;22.10;;;14.57;;
53521;SDS011;39398;48.382;9.802;2024-01-30T15:56:30;22.90;;;14.23;;
53521;SDS011;39398;48.382;9.802;2024-01-30T16:01:33;23.10;;;14.10;;
53521;SDS011;39398;48.382;9.802;2024-01-30T16:06:34;21.15;;;14.30;;
53521;SDS011;39398;48.382;9.802;2024-01-30T16:11:36;26.42;;;19.95;;
53521;SDS011;39398;48.382;9.802;2024-01-30T16:16:39;25.27;;;15.18;;
53521;SDS011;39398;48.382;9.802;2024-01-30T16:21:40;22.17;;;15.10;;
53521;SDS011;39398;48.382;9.802;2024-01-30T16:26:42;24.05;;;17.50;;
53521;SDS011;39398;48.382;9.802;2024-01-30T16:31:45;29.23;;;21.30;;
53521;SDS011;39398;48.382;9.802;2024-01-30T16:36:47;27.35;;;17.92;;
53521;SDS011;39398;48.382;9.802;2024-01-30T16:41:48;25.52;;;16.90;;
53521;SDS011;39398;48.382;9.802;2024-01-30T16:46:51;28.50;;;15.70;;
53521;SDS011;39398;48.382;9.802;2024-01-30T16:51:53;37.63;;;24.70;;
53521;SDS011;39398;48.382;9.802;2024-01-30T16:56:54;26.27;;;17.75;;
53521;SDS011;39398;48.382;9.802;2024-01-30T17:01:57;24.30;;;16.58;;
53521;SDS011;39398;48.382;9.802;2024-01-30T17:06:59;22.88;;;15.57;;
53521;SDS011;39398;48.382;9.802;2024-01-30T17:12:01;26.88;;;17.30;;
53521;SDS011;39398;48.382;9.802;2024-01-30T17:17:04;29.15;;;17.42;;
53521;SDS011;39398;48.382;9.802;2024-01-30T17:22:13;30.40;;;21.02;;
53521;SDS011;39398;48.382;9.802;2024-01-30T17:27:15;28.73;;;19.23;;
53521;SDS011;39398;48.382;9.802;2024-01-30T17:32:18;33.13;;;19.92;;
53521;SDS011;39398;48.382;9.802;2024-01-30T17:37:20;29.30;;;18.45;;
53521;SDS011;39398;48.382;9.802;2024-01-30T17:42:21;28.75;;;18.88;;
53521;SDS011;39398;48.382;9.802;2024-01-30T17:47:24;31.15;;;19.58;;
53521;SDS011;39398;48.382;9.802;2024-01-30T17:52:26;33.00;;;23.83;;
53521;SDS011;39398;48.382;9.802;2024-01-30T17:57:28;35.20;;;24.98;;
53521;SDS011;39398;48.382;9.802;2024-01-30T18:02:31;26.13;;;18.45;;
53521;SDS011;39398;48.382;9.802;2024-01-30T18:07:32;29.42;;;19.45;;
53521;SDS011;39398;48.382;9.802;2024-01-30T18:12:34;27.73;;;19.05;;
53521;SDS011;39398;48.382;9.802;2024-01-30T18:17:37;24.45;;;17.33;;
53521;SDS011;39398;48.382;9.802;2024-01-30T18:22:38;30.90;;;18.23;;
53521;SDS011;39398;48.382;9.802;2024-01-30T18:27:40;26.60;;;17.60;;
53521;SDS011;39398;48.382;9.802;2024-01-30T18:32:43;26.02;;;18.10;;
53521;SDS011;39398;48.382;9.802;2024-01-30T18:37:45;26.45;;;17.90;;
53521;SDS011;39398;48.382;9.802;2024-01-30T18:42:46;27.17;;;19.13;;
53521;SDS011;39398;48.382;9.802;2024-01-30T18:47:49;27.98;;;18.23;;
53521;SDS011;39398;48.382;9.802;2024-01-30T18:52:51;25.50;;;17.65;;
53521;SDS011;39398;48.382;9.802;2024-01-30T18:57:53;26.77;;;18.23;;
53521;SDS011;39398;48.382;9.802;2024-01-30T19:02:56;32.05;;;20.33;;
53521;SDS011;39398;48.382;9.802;2024-01-30T19:07:57;31.90;;;21.42;;
53521;SDS011;39398;48.382;9.802;2024-01-30T19:12:59;37.85;;;22.73;;
53521;SDS011;39398;48.382;9.802;2024-01-30T19:18:02;33.15;;;21.08;;
53521;SDS011;39398;48.382;9.802;2024-01-30T19:23:04;36.58;;;21.58;;
53521;SDS011;39398;48.382;9.802;2024-01-30T19:28:06;29.30;;;18.60;;
53521;SDS011;39398;48.382;9.802;2024-01-30T19:33:09;29.70;;;17.10;;
53521;SDS011;39398;48.382;9.802;2024-01-30T19:38:11;25.38;;;16.52;;
53521;SDS011;39398;48.382;9.802;2024-01-30T19:43:13;24.90;;;16.80;;
53521;SDS011;39398;48.382;9.802;2024-01-30T19:48:15;27.90;;;16.75;;
53521;SDS011;39398;48.382;9.802;2024-01-30T19:53:17;34.17;;;22.70;;
53521;SDS011;39398;48.382;9.802;2024-01-30T19:58:19;32.20;;;21.45;;
53521;SDS011;39398;48.382;9.802;2024-01-30T20:03:22;35.13;;;22.88;;
53521;SDS011;39398;48.382;9.802;2024-01-30T20:08:23;28.17;;;18.63;;
53521;SDS011;39398;48.382;9.802;2024-01-30T20:13:25;32.05;;;20.48;;
53521;SDS011;39398;48.382;9.802;2024-01-30T20:18:30;53.78;;;35.28;;
53521;SDS011;39398;48.382;9.802;2024-01-30T20:23:32;29.90;;;19.33;;
53521;SDS011;39398;48.382;9.802;2024-01-30T20:28:34;30.67;;;18.75;;
53521;SDS011;39398;48.382;9.802;2024-01-30T20:33:37;44.70;;;27.92;;
53521;SDS011;39398;48.382;9.802;2024-01-30T20:38:38;30.02;;;19.95;;
53521;SDS011;39398;48.382;9.802;2024-01-30T20:43:41;26.92;;;17.40;;
53521;SDS011;39398;48.382;9.802;2024-01-30T20:48:44;30.58;;;18.60;;
53521;SDS011;39398;48.382;9.802;2024-01-30T20:53:46;29.30;;;18.55;;
53521;SDS011;39398;48.382;9.802;2024-01-30T20:58:48;32.33;;;19.02;;
53521;SDS011;39398;48.382;9.802;2024-01-30T21:03:51;25.63;;;16.70;;
53521;SDS011;39398;48.382;9.802;2024-01-30T21:08:52;23.45;;;15.52;;
53521;SDS011;39398;48.382;9.802;2024-01-30T21:13:54;20.48;;;14.77;;
53521;SDS011;39398;48.382;9.802;2024-01-30T21:18:57;20.88;;;12.05;;
53521;SDS011;39398;48.382;9.802;2024-01-30T21:23:58;18.58;;;12.25;;
53521;SDS011;39398;48.382;9.802;2024-01-30T21:29:00;25.48;;;13.65;;
53521;SDS011;39398;48.382;9.802;2024-01-30T21:34:03;24.83;;;14.95;;
53521;SDS011;39398;48.382;9.802;2024-01-30T21:39:05;23.52;;;16.17;;
53521;SDS011;39398;48.382;9.802;2024-01-30T21:44:06;21.95;;;14.80;;
53521;SDS011;39398;48.382;9.802;2024-01-30T21:49:09;26.17;;;18.02;;
53521;SDS011;39398;48.382;9.802;2024-01-30T21:54:11;30.30;;;18.55;;
53521;SDS011;39398;48.382;9.802;2024-01-30T21:59:12;33.40;;;19.65;;
53521;SDS011;39398;48.382;9.802;2024-01-30T22:04:15;29.25;;;16.92;;
53521;SDS011;39398;48.382;9.802;2024-01-30T22:09:17;28.42;;;17.55;;
53521;SDS011;39398;48.382;9.802;2024-01-30T22:14:18;25.92;;;16.05;;
53521;SDS011;39398;48.382;9.802;2024-01-30T22:19:21;25.95;;;15.60;;
53521;SDS011;39398;48.382;9.802;2024-01-30T22:24:23;20.92;;;14.10;;
53521;SDS011;39398;48.382;9.802;2024-01-30T22:29:25;21.55;;;13.55;;
53521;SDS011;39398;48.382;9.802;2024-01-30T22:34:29;26.83;;;14.77;;
53521;SDS011;39398;48.382;9.802;2024-01-30T22:39:32;23.45;;;13.77;;
53521;SDS011;39398;48.382;9.802;2024-01-30T22:44:34;25.55;;;15.02;;
53521;SDS011;39398;48.382;9.802;2024-01-30T22:49:37;24.05;;;14.98;;
53521;SDS011;39398;48.382;9.802;2024-01-30T22:54:38;25.73;;;16.02;;
53521;SDS011;39398;48.382;9.802;2024-01-30T22:59:40;25.85;;;16.23;;
53521;SDS011;39398;48.382;9.802;2024-01-30T23:04:43;24.88;;;15.52;;
53521;SDS011;39398;48.382;9.802;2024-01-30T23:09:45;28.92;;;15.48;;
53521;SDS011;39398;48.382;9.802;2024-01-30T23:14:47;20.13;;;13.27;;
53521;SDS011;39398;48.382;9.802;2024-01-30T23:19:50;15.75;;;10.13;;
53521;SDS011;39398;48.382;9.802;2024-01-30T23:24:52;17.42;;;10.57;;
53521;SDS011;39398;48.382;9.802;2024-01-30T23:29:53;18.63;;;9.95;;
53521;SDS011;39398;48.382;9.802;2024-01-30T23:34:56;16.40;;;9.43;;
53521;SDS011;39398;48.382;9.802;2024-01-30T23:39:58;18.17;;;8.70;;
53521;SDS011;39398;48.382;9.802;2024-01-30T23:45:00;15.43;;;8.80;;
53521;SDS011;39398;48.382;9.802;2024-01-30T23:50:03;15.23;;;8.90;;
53521;SDS011;39398;48.382;9.802;2024-01-30T23:55:05;17.10;;;11.38;;
